This is the latest recevied weather packets stored in our database for station/object TVARMINN. If no packets are shown the sender has not sent any weather packets the latest 10 day(s).
| Time | Temp. | Humidity | Pressure | Rain* | Wind** | Luminosity | Snow |
|---|---|---|---|---|---|---|---|
| 1788602694 | 16.67° C | 55% | 995.8 hPa | 0 mm | - | - | - |
| 1788601493 | 16.67° C | 59% | 995.7 hPa | 0 mm | - | - | - |
| 1788600293 | 16.11° C | 56% | 995.6 hPa | 0 mm | - | - | - |
| 1788599094 | 15.56° C | 57% | 995.5 hPa | 0 mm | - | - | - |
| 1788597894 | 15.56° C | 63% | 995.4 hPa | 0 mm | - | - | - |
| 1788596696 | 15° C | 66% | 995.2 hPa | 0 mm | - | - | - |
| 1788595492 | 15° C | 73% | 995.1 hPa | 0 mm | - | - | - |
| 1788593092 | 14.44° C | 76% | 994.9 hPa | 0 mm | - | - | - |
| 1788591895 | 14.44° C | 79% | 994.8 hPa | 0 mm | - | - | - |
| 1788590691 | 13.33° C | 82% | 994.7 hPa | 0 mm | - | - | - |
| 1788589282 | 11.67° C | 90% | 994.5 hPa | 0 mm | - | - | - |
| 1788588293 | 11.67° C | 91% | 994.5 hPa | 0 mm | - | - | - |
| 1788565491 | 11.11° C | 99% | 994.5 hPa | 0 mm | - | - | - |
| 1788564292 | 11.11° C | 98% | 994.6 hPa | 0 mm | - | - | - |
| 1788560691 | 11.11° C | 98% | 995 hPa | 0 mm | - | - | - |
| 1788552292 | 12.22° C | 95% | 996 hPa | 0 mm | - | - | - |
| 1788551091 | 12.22° C | 96% | 996.2 hPa | 0 mm | - | - | - |
| 1788549680 | 12.22° C | 96% | 996.4 hPa | 0 mm | - | - | - |
| 1788537891 | 15.56° C | 82% | 997.4 hPa | 0 mm | - | - | - |
| 1788529489 | 16.67° C | 71% | 998.2 hPa | 0 mm | - | - | - |
| 1788524688 | 17.22° C | 75% | 998.4 hPa | 0 mm | - | - | - |
| 1788521087 | 17.22° C | 71% | 998.6 hPa | 0 mm | - | - | - |
| 1788517487 | 16.67° C | 72% | 998.7 hPa | 0 mm | - | - | - |
| 1788513888 | 15.56° C | 82% | 998.8 hPa | 0 mm | - | - | - |
| 1788509087 | 15.56° C | 85% | 999 hPa | 0 mm | - | - | - |
* Rain latest hour (hover to see other rain measurements)
** Current wind speed in m/s (hover to see current wind gust speed)